Time;durP1;ratioP1;P1;durP2;ratioP2;P2;SDS_P1;SDS_P2;PMS_P1;PMS_P2;Temp;Humidity;BMP_temperature;BMP_pressure;BME280_temperature;BME280_humidity;BME280_pressure;Samples;Min_cycle;Max_cycle;Signal;HPM_P1;HPM_P2
2022/11/06 00:01:29;;;;;;;0.10;0.10;;;5.20;99.90;;;;;;5051893;28;20618;-70
2022/11/06 00:03:54;;;;;;;0.00;0.00;;;5.20;99.90;;;;;;5047461;28;20233;-70
2022/11/06 00:09:07;;;;;;;0.43;0.43;;;5.20;99.90;;;;;;5051964;28;20270;-69
2022/11/06 00:11:33;;;;;;;0.50;0.50;;;5.20;99.90;;;;;;5051251;28;20213;-69
2022/11/06 00:14:00;;;;;;;0.10;0.10;;;5.20;99.90;;;;;;5051700;28;20220;-70
2022/11/06 00:16:26;;;;;;;0.30;0.30;;;5.20;99.90;;;;;;5051255;28;20242;-69
2022/11/06 00:18:52;;;;;;;0.00;0.00;;;5.20;99.90;;;;;;5051984;28;20272;-69
2022/11/06 00:21:22;;;;;;;0.93;0.20;;;5.10;99.90;;;;;;5051478;28;20181;-69
2022/11/06 00:23:48;;;;;;;0.15;0.15;;;5.10;99.90;;;;;;5051957;28;20327;-70
2022/11/06 00:26:17;;;;;;;0.32;0.32;;;5.10;99.90;;;;;;5051378;28;20176;-70
2022/11/06 00:28:43;;;;;;;0.15;0.15;;;5.10;99.90;;;;;;5035424;28;20203;-70
2022/11/06 00:31:12;;;;;;;0.10;0.10;;;5.00;99.90;;;;;;5051333;28;20224;-70
2022/11/06 00:33:38;;;;;;;0.10;0.10;;;5.00;99.90;;;;;;5051645;28;20186;-69
2022/11/06 00:36:05;;;;;;;0.00;0.00;;;5.00;99.90;;;;;;5051141;28;20212;-69
2022/11/06 00:38:31;;;;;;;0.00;0.00;;;5.00;99.90;;;;;;5051687;28;20278;-69
2022/11/06 00:41:05;;;;;;;0.00;0.00;;;5.00;99.90;;;;;;5051914;28;20651;-69
2022/11/06 00:43:31;;;;;;;0.00;0.00;;;5.00;99.90;;;;;;5051404;28;20181;-69
2022/11/06 00:46:01;;;;;;;0.10;0.10;;;4.90;99.90;;;;;;5051262;28;20204;-69
2022/11/06 00:48:27;;;;;;;0.30;0.30;;;5.00;99.90;;;;;;5051095;28;20181;-69
2022/11/06 00:50:52;;;;;;;0.10;0.10;;;4.90;99.90;;;;;;5051495;28;20205;-69
2022/11/06 00:53:18;;;;;;;0.52;0.28;;;4.90;99.90;;;;;;5051050;28;20178;-69
2022/11/06 00:55:44;;;;;;;0.00;0.00;;;4.80;99.90;;;;;;5051347;28;20192;-70
2022/11/06 00:58:09;;;;;;;0.10;0.10;;;4.80;99.90;;;;;;5051406;28;20185;-70
2022/11/06 01:00:35;;;;;;;0.00;0.00;;;4.80;99.90;;;;;;5050020;28;20181;-69
2022/11/06 01:03:00;;;;;;;0.05;0.05;;;4.70;99.90;;;;;;5051520;28;20201;-69
2022/11/06 01:05:26;;;;;;;0.05;0.05;;;4.70;99.90;;;;;;5050998;28;20699;-70
2022/11/06 01:07:51;;;;;;;0.08;0.08;;;4.70;99.90;;;;;;5051239;28;20227;-70
2022/11/06 01:10:17;;;;;;;0.03;0.03;;;4.70;99.90;;;;;;5050982;28;20243;-70
2022/11/06 01:12:42;;;;;;;0.00;0.00;;;4.70;99.90;;;;;;5051034;28;20185;-70
2022/11/06 01:15:08;;;;;;;0.00;0.00;;;4.70;99.90;;;;;;5049778;28;20311;-69
2022/11/06 01:17:34;;;;;;;0.05;0.05;;;4.60;99.90;;;;;;5051492;28;20189;-69
2022/11/06 01:20:00;;;;;;;0.00;0.00;;;4.60;99.90;;;;;;5050788;28;20186;-69
2022/11/06 01:22:25;;;;;;;0.00;0.00;;;4.60;99.90;;;;;;5051091;28;20280;-69
2022/11/06 01:24:51;;;;;;;0.00;0.00;;;4.60;99.90;;;;;;5050680;28;20182;-69
2022/11/06 01:27:16;;;;;;;0.00;0.00;;;4.50;99.90;;;;;;5051167;28;20285;-69
2022/11/06 01:29:42;;;;;;;0.00;0.00;;;4.50;99.90;;;;;;5050944;28;20663;-69
2022/11/06 01:32:08;;;;;;;0.00;0.00;;;4.50;99.90;;;;;;5050615;28;20186;-69
2022/11/06 01:34:34;;;;;;;0.22;0.22;;;4.50;99.90;;;;;;5050688;28;20181;-69
2022/11/06 01:36:59;;;;;;;0.00;0.00;;;4.50;99.90;;;;;;5050931;28;20687;-69
2022/11/06 01:39:25;;;;;;;0.00;0.00;;;4.50;99.90;;;;;;5050760;28;20203;-69
2022/11/06 01:41:52;;;;;;;0.82;0.30;;;4.40;99.90;;;;;;5054772;28;20555;-69
2022/11/06 01:44:32;;;;;;;0.00;0.00;;;4.40;99.90;;;;;;5054356;28;20243;-69
2022/11/06 01:46:59;;;;;;;0.00;0.00;;;4.40;99.90;;;;;;5054524;28;20613;-69
2022/11/06 01:49:26;;;;;;;0.00;0.00;;;4.40;99.90;;;;;;5054076;28;20719;-69
2022/11/06 01:51:59;;;;;;;0.00;0.00;;;4.30;99.90;;;;;;5053206;28;20221;-69
2022/11/06 01:54:27;;;;;;;0.00;0.00;;;4.30;99.90;;;;;;5054481;28;20683;-69
2022/11/06 01:56:56;;;;;;;0.10;0.10;;;4.30;99.90;;;;;;5053909;28;20292;-69
2022/11/06 01:59:25;;;;;;;0.10;0.10;;;4.20;99.90;;;;;;5053954;28;20273;-69
2022/11/06 02:01:51;;;;;;;0.25;0.25;;;4.20;99.90;;;;;;5054397;28;20235;-69
2022/11/06 02:04:36;;;;;;;0.00;0.00;;;4.10;99.90;;;;;;5056917;28;20339;-69
2022/11/06 02:07:02;;;;;;;0.00;0.00;;;4.10;99.90;;;;;;5054055;28;20243;-69
2022/11/06 02:09:30;;;;;;;0.00;0.00;;;4.10;99.90;;;;;;5053771;28;20260;-68
2022/11/06 02:12:13;;;;;;;0.00;0.00;;;4.00;99.90;;;;;;5053985;28;20216;-69
2022/11/06 02:15:07;;;;;;;0.00;0.00;;;4.00;99.90;;;;;;5052659;28;20189;-69
2022/11/06 02:18:03;;;;;;;0.10;0.10;;;4.00;99.90;;;;;;5040139;28;20239;-69
2022/11/06 02:20:38;;;;;;;0.70;0.52;;;4.00;99.90;;;;;;5051874;28;20217;-69
2022/11/06 02:23:23;;;;;;;0.32;0.32;;;3.90;99.90;;;;;;5053891;28;20233;-69
2022/11/06 02:25:53;;;;;;;0.00;0.00;;;3.90;99.90;;;;;;5053801;28;20295;-69
2022/11/06 02:28:34;;;;;;;0.00;0.00;;;3.90;99.90;;;;;;5052588;28;20243;-69
2022/11/06 02:31:06;;;;;;;0.00;0.00;;;3.90;99.90;;;;;;5053146;28;20562;-68
2022/11/06 02:33:42;;;;;;;0.00;0.00;;;3.80;99.90;;;;;;5053936;28;20256;-69
2022/11/06 02:36:13;;;;;;;0.00;0.00;;;3.80;99.90;;;;;;5053205;28;20539;-69
2022/11/06 02:38:47;;;;;;;0.00;0.00;;;3.80;99.90;;;;;;5052943;28;20280;-69
2022/11/06 02:41:29;;;;;;;0.00;0.00;;;3.80;99.90;;;;;;5052449;28;20226;-69
2022/11/06 02:43:56;;;;;;;0.52;0.50;;;3.80;99.90;;;;;;5051778;28;20636;-69
2022/11/06 02:46:38;;;;;;;0.00;0.00;;;3.80;99.90;;;;;;5053562;28;20181;-69
2022/11/06 02:49:20;;;;;;;0.00;0.00;;;3.80;99.90;;;;;;5053020;28;20268;-69
2022/11/06 02:51:52;;;;;;;0.05;0.05;;;3.80;99.90;;;;;;5052486;28;20221;-69
2022/11/06 02:54:19;;;;;;;1.25;0.10;;;3.80;99.90;;;;;;5049047;28;20648;-69
2022/11/06 02:56:49;;;;;;;0.10;0.10;;;3.70;99.90;;;;;;5052966;28;20204;-69
2022/11/06 02:59:22;;;;;;;0.00;0.00;;;3.70;99.90;;;;;;5052666;28;20246;-69
2022/11/06 03:01:58;;;;;;;0.40;0.17;;;3.70;99.90;;;;;;5052830;28;20304;-69
2022/11/06 03:04:35;;;;;;;0.28;0.20;;;3.70;99.90;;;;;;5052938;28;20185;-69
2022/11/06 03:07:19;;;;;;;0.00;0.00;;;3.70;99.90;;;;;;5052818;28;20221;-68
2022/11/06 03:09:47;;;;;;;0.25;0.13;;;3.70;99.90;;;;;;5052679;28;20178;-69
2022/11/06 03:12:20;;;;;;;0.00;0.00;;;3.70;99.90;;;;;;5052667;28;20197;-69
2022/11/06 03:15:09;;;;;;;0.10;0.10;;;3.70;99.90;;;;;;5052645;28;20182;-69
2022/11/06 03:17:54;;;;;;;0.00;0.00;;;3.70;99.90;;;;;;5051666;28;20217;-69
2022/11/06 03:20:47;;;;;;;0.10;0.10;;;3.80;99.90;;;;;;5037201;28;20193;-69
2022/11/06 03:23:30;;;;;;;0.00;0.00;;;3.80;99.90;;;;;;5052424;28;20189;-69
2022/11/06 03:26:16;;;;;;;0.00;0.00;;;3.80;99.90;;;;;;5052639;28;20259;-69
2022/11/06 03:29:02;;;;;;;0.20;0.20;;;3.70;99.90;;;;;;5052781;28;20177;-69
2022/11/06 03:31:45;;;;;;;0.88;0.38;;;3.70;99.90;;;;;;5052319;28;20204;-69
2022/11/06 03:34:16;;;;;;;0.22;0.22;;;3.70;99.90;;;;;;5051121;28;20680;-69
2022/11/06 03:36:48;;;;;;;0.08;0.08;;;3.60;99.90;;;;;;5052453;28;20214;-70
2022/11/06 03:39:19;;;;;;;0.00;0.00;;;3.60;99.90;;;;;;5052245;28;20177;-69
2022/11/06 03:41:52;;;;;;;0.08;0.08;;;3.60;99.90;;;;;;5046783;28;20569;-69
2022/11/06 03:44:23;;;;;;;0.00;0.00;;;3.60;99.90;;;;;;5052252;28;20189;-69
2022/11/06 03:46:56;;;;;;;0.10;0.10;;;3.60;99.90;;;;;;5052138;28;20178;-69
2022/11/06 03:49:35;;;;;;;0.00;0.00;;;3.60;99.90;;;;;;5052619;28;20671;-69
2022/11/06 03:52:15;;;;;;;0.00;0.00;;;3.60;99.90;;;;;;5051843;28;20189;-69
2022/11/06 03:54:53;;;;;;;0.00;0.00;;;3.60;99.90;;;;;;5037642;28;20261;-69
2022/11/06 03:57:40;;;;;;;0.10;0.10;;;3.60;99.90;;;;;;5052111;28;20169;-69
2022/11/06 04:00:07;;;;;;;0.00;0.00;;;3.60;99.90;;;;;;5051882;28;20181;-69
2022/11/06 04:02:36;;;;;;;0.00;0.00;;;3.60;99.90;;;;;;5051780;28;20519;-69
2022/11/06 04:05:09;;;;;;;0.00;0.00;;;3.60;99.90;;;;;;5049882;28;20528;-68
2022/11/06 04:07:39;;;;;;;0.00;0.00;;;3.60;99.90;;;;;;5051667;28;20642;-69
2022/11/06 04:15:45;;;;;;;0.30;0.30;;;3.50;99.90;;;;;;5052257;28;20235;-69
2022/11/06 04:18:12;;;;;;;0.00;0.00;;;3.50;99.90;;;;;;5051435;28;20223;-70
2022/11/06 04:27:05;;;;;;;0.00;0.00;;;3.40;99.90;;;;;;5051681;28;20224;-70
2022/11/06 04:30:00;;;;;;;0.00;0.00;;;3.40;99.90;;;;;;5051712;28;20706;-69
2022/11/06 04:32:39;;;;;;;0.10;0.05;;;3.40;99.90;;;;;;5049914;28;20204;-69
2022/11/06 04:35:33;;;;;;;0.00;0.00;;;3.30;99.90;;;;;;5051290;28;20189;-69
2022/11/06 04:38:24;;;;;;;0.10;0.10;;;3.20;99.90;;;;;;5051723;28;20651;-69
2022/11/06 04:40:55;;;;;;;0.00;0.00;;;3.20;99.90;;;;;;5041106;28;20208;-69
2022/11/06 04:43:24;;;;;;;0.10;0.10;;;3.20;99.90;;;;;;5051183;28;20242;-69
2022/11/06 04:45:53;;;;;;;0.10;0.10;;;3.20;99.90;;;;;;5050273;28;20235;-69
2022/11/06 04:48:21;;;;;;;0.05;0.05;;;3.20;99.90;;;;;;5051233;28;20670;-69
2022/11/06 04:50:54;;;;;;;0.10;0.10;;;3.20;99.90;;;;;;5051273;28;20240;-69
2022/11/06 04:53:21;;;;;;;0.00;0.00;;;3.20;99.90;;;;;;5051281;28;20247;-69
2022/11/06 04:55:58;;;;;;;0.20;0.20;;;3.20;99.90;;;;;;5051336;28;20227;-69
2022/11/06 04:58:24;;;;;;;0.00;0.00;;;3.20;99.90;;;;;;5051017;28;20208;-70
2022/11/06 05:00:50;;;;;;;0.00;0.00;;;3.20;99.90;;;;;;5051554;28;20640;-70
2022/11/06 05:03:16;;;;;;;0.22;0.10;;;3.30;99.90;;;;;;5051508;28;20185;-70
2022/11/06 05:05:43;;;;;;;0.43;0.10;;;3.30;99.90;;;;;;5051178;28;20196;-70
2022/11/06 05:08:14;;;;;;;0.00;0.00;;;3.30;99.90;;;;;;5051045;28;20236;-70
2022/11/06 05:10:40;;;;;;;0.00;0.00;;;3.20;99.90;;;;;;5050868;28;20703;-70
2022/11/06 05:13:06;;;;;;;0.10;0.10;;;3.30;99.90;;;;;;5051263;28;20649;-70
2022/11/06 05:15:32;;;;;;;0.00;0.00;;;3.20;99.90;;;;;;5053139;28;20207;-70
2022/11/06 05:17:57;;;;;;;0.03;0.03;;;3.30;99.90;;;;;;5055314;28;20178;-69
2022/11/06 05:20:24;;;;;;;0.10;0.10;;;3.20;99.90;;;;;;5054856;28;20257;-70
2022/11/06 05:23:01;;;;;;;0.00;0.00;;;3.20;99.90;;;;;;5054777;28;20227;-70
2022/11/06 05:25:30;;;;;;;0.00;0.00;;;3.20;99.90;;;;;;5054990;28;20230;-70
2022/11/06 05:27:55;;;;;;;0.47;0.47;;;3.20;99.90;;;;;;5055420;28;20197;-70
2022/11/06 05:30:22;;;;;;;0.10;0.10;;;3.20;99.90;;;;;;5054521;28;20189;-70
2022/11/06 05:32:48;;;;;;;0.00;0.00;;;3.20;99.90;;;;;;5054485;28;20181;-70
2022/11/06 05:35:14;;;;;;;0.10;0.10;;;3.20;99.90;;;;;;5054795;28;20188;-70
2022/11/06 05:37:39;;;;;;;0.30;0.30;;;3.20;99.90;;;;;;5054968;28;20243;-70
2022/11/06 05:40:07;;;;;;;0.00;0.00;;;3.10;99.90;;;;;;5036618;28;20277;-70
2022/11/06 05:42:33;;;;;;;0.05;0.05;;;3.10;99.90;;;;;;5054543;28;20185;-70
2022/11/06 05:44:58;;;;;;;0.98;0.10;;;3.10;99.90;;;;;;5054368;28;20188;-70
2022/11/06 05:47:24;;;;;;;0.00;0.00;;;3.10;99.90;;;;;;5054640;28;20182;-70
2022/11/06 05:49:49;;;;;;;0.10;0.10;;;3.10;99.90;;;;;;5054603;28;20189;-71
2022/11/06 05:52:15;;;;;;;0.00;0.00;;;3.00;99.90;;;;;;5054205;28;20231;-70
2022/11/06 05:54:40;;;;;;;0.00;0.00;;;3.00;99.90;;;;;;5054721;28;20280;-70
2022/11/06 05:57:06;;;;;;;0.00;0.00;;;3.00;99.90;;;;;;5054195;28;20640;-70
2022/11/06 05:59:31;;;;;;;0.03;0.03;;;3.00;99.90;;;;;;5054599;28;20213;-69
2022/11/06 06:01:58;;;;;;;0.22;0.22;;;3.00;99.90;;;;;;5054112;28;20248;-70
2022/11/06 06:04:23;;;;;;;0.03;0.03;;;2.90;99.90;;;;;;5054187;28;20189;-69
2022/11/06 06:06:49;;;;;;;0.00;0.00;;;3.00;99.90;;;;;;5053493;28;20236;-70
2022/11/06 06:09:14;;;;;;;0.20;0.20;;;2.90;99.90;;;;;;5054186;28;20207;-69
2022/11/06 06:11:40;;;;;;;0.10;0.10;;;2.90;99.90;;;;;;5053593;28;20249;-69
2022/11/06 06:14:06;;;;;;;0.00;0.00;;;2.90;99.90;;;;;;5052770;28;20209;-69
2022/11/06 06:16:31;;;;;;;0.47;0.47;;;2.80;99.90;;;;;;5053755;28;20177;-70
2022/11/06 06:18:57;;;;;;;0.13;0.13;;;2.80;99.90;;;;;;5052630;28;20176;-70
2022/11/06 06:21:22;;;;;;;0.00;0.00;;;2.80;99.90;;;;;;5053786;28;20180;-69
2022/11/06 06:23:48;;;;;;;0.00;0.00;;;2.80;99.90;;;;;;5053974;28;20182;-70
2022/11/06 06:26:13;;;;;;;0.00;0.00;;;2.70;99.90;;;;;;5052806;28;20188;-70
2022/11/06 06:28:39;;;;;;;0.00;0.00;;;2.70;99.90;;;;;;5053815;28;20173;-70
2022/11/06 06:31:05;;;;;;;0.00;0.00;;;2.70;99.90;;;;;;5053253;28;20710;-70
2022/11/06 06:33:31;;;;;;;0.00;0.00;;;2.70;99.90;;;;;;5052580;28;20189;-70
2022/11/06 06:35:57;;;;;;;0.00;0.00;;;2.70;99.90;;;;;;5053450;28;20190;-70
2022/11/06 06:38:22;;;;;;;0.00;0.00;;;2.70;99.90;;;;;;5053827;28;20200;-70
2022/11/06 06:40:48;;;;;;;0.10;0.10;;;2.70;99.90;;;;;;5053410;28;20308;-70
2022/11/06 06:43:13;;;;;;;0.08;0.08;;;2.70;99.90;;;;;;5053392;28;20197;-69
2022/11/06 06:45:39;;;;;;;0.03;0.03;;;2.70;99.90;;;;;;5053447;28;20224;-69
2022/11/06 06:48:05;;;;;;;0.20;0.20;;;2.70;99.90;;;;;;5053280;28;20637;-69
2022/11/06 06:50:31;;;;;;;0.10;0.10;;;2.70;99.90;;;;;;5053158;28;20209;-69
2022/11/06 06:52:57;;;;;;;0.00;0.00;;;2.80;99.90;;;;;;5053116;28;20197;-69
2022/11/06 06:55:24;;;;;;;0.00;0.00;;;2.80;99.90;;;;;;5053072;28;20173;-70
2022/11/06 06:57:56;;;;;;;0.93;0.57;;;2.80;99.90;;;;;;5053469;28;20664;-69
2022/11/06 07:00:21;;;;;;;0.88;0.47;;;2.80;99.90;;;;;;5051543;28;20212;-70
2022/11/06 07:02:47;;;;;;;0.00;0.00;;;2.90;99.90;;;;;;5052030;28;20174;-69
2022/11/06 07:05:12;;;;;;;0.00;0.00;;;2.90;99.90;;;;;;5053378;28;20240;-69
2022/11/06 07:07:38;;;;;;;0.05;0.05;;;2.90;99.90;;;;;;5053057;28;20225;-69
2022/11/06 07:10:04;;;;;;;0.10;0.10;;;2.90;99.90;;;;;;5053035;28;20209;-70
2022/11/06 07:12:30;;;;;;;0.15;0.15;;;3.00;99.90;;;;;;5053228;28;20173;-69
2022/11/06 07:14:55;;;;;;;0.00;0.00;;;3.00;99.90;;;;;;5053232;28;20640;-69
2022/11/06 07:17:21;;;;;;;0.00;0.00;;;3.10;99.90;;;;;;5063616;28;20229;-69
2022/11/06 07:19:46;;;;;;;0.00;0.00;;;3.30;99.90;;;;;;5054354;28;20189;-70
2022/11/06 07:22:12;;;;;;;0.25;0.25;;;3.50;99.90;;;;;;5053219;28;20542;-70
2022/11/06 07:24:38;;;;;;;0.95;0.30;;;4.00;99.90;;;;;;5056541;28;20173;-70
2022/11/06 07:27:04;;;;;;;0.00;0.00;;;4.60;99.90;;;;;;5053293;28;20316;-70
2022/11/06 07:29:29;;;;;;;0.00;0.00;;;5.00;99.90;;;;;;5057554;28;20327;-69
2022/11/06 07:31:55;;;;;;;0.00;0.00;;;5.30;99.90;;;;;;5052591;28;20217;-69
2022/11/06 07:34:20;;;;;;;0.25;0.15;;;5.60;99.90;;;;;;5052724;28;20184;-69
2022/11/06 07:36:46;;;;;;;0.00;0.00;;;5.70;99.90;;;;;;5052242;28;20256;-67
2022/11/06 07:39:11;;;;;;;0.00;0.00;;;5.70;99.90;;;;;;5051889;28;20247;-69
2022/11/06 07:41:37;;;;;;;0.00;0.00;;;5.80;99.90;;;;;;5052078;28;20281;-67
2022/11/06 07:44:03;;;;;;;0.22;0.22;;;5.80;99.90;;;;;;5051856;28;20315;-66
2022/11/06 07:46:28;;;;;;;0.00;0.00;;;5.80;99.90;;;;;;5052246;28;20231;-67
2022/11/06 07:48:54;;;;;;;0.00;0.00;;;5.90;99.90;;;;;;5052192;28;20192;-65
2022/11/06 07:51:19;;;;;;;0.00;0.00;;;6.00;99.90;;;;;;5052302;28;20296;-66
2022/11/06 07:53:45;;;;;;;0.30;0.30;;;6.20;99.90;;;;;;5052213;28;20181;-64
2022/11/06 07:56:10;;;;;;;0.00;0.00;;;6.40;99.90;;;;;;5052126;28;20217;-72
2022/11/06 07:58:37;;;;;;;0.08;0.08;;;6.60;99.90;;;;;;5051728;28;20710;-66
2022/11/06 08:01:03;;;;;;;0.00;0.00;;;6.80;99.90;;;;;;5051988;28;20190;-71
2022/11/06 08:03:29;;;;;;;0.00;0.00;;;7.00;99.90;;;;;;5052000;28;20188;-70
2022/11/06 08:05:55;;;;;;;0.00;0.00;;;7.30;99.90;;;;;;5052077;28;20260;-70
2022/11/06 08:08:21;;;;;;;0.00;0.00;;;7.50;99.90;;;;;;5051714;28;20692;-66
2022/11/06 08:10:47;;;;;;;0.00;0.00;;;7.70;99.90;;;;;;5051730;28;20300;-73
2022/11/06 08:13:16;;;;;;;0.10;0.10;;;7.90;99.90;;;;;;5051286;28;20177;-71
2022/11/06 08:15:43;;;;;;;0.00;0.00;;;8.10;99.90;;;;;;5052174;28;20186;-72
2022/11/06 08:18:09;;;;;;;0.13;0.13;;;8.20;99.90;;;;;;5051624;28;20190;-71
2022/11/06 08:20:37;;;;;;;0.00;0.00;;;8.20;99.90;;;;;;5052162;28;20173;-72
2022/11/06 08:23:05;;;;;;;0.00;0.00;;;8.30;99.90;;;;;;5050730;28;20518;-66
2022/11/06 08:25:31;;;;;;;0.10;0.10;;;8.50;99.90;;;;;;5056551;28;20268;-67
2022/11/06 08:27:57;;;;;;;0.00;0.00;;;8.70;99.90;;;;;;5052564;28;20264;-67
2022/11/06 08:30:24;;;;;;;0.00;0.00;;;8.80;99.90;;;;;;5058975;28;20213;-67
2022/11/06 08:32:49;;;;;;;0.00;0.00;;;9.00;99.90;;;;;;5056145;28;20189;-67
2022/11/06 08:35:15;;;;;;;0.00;0.00;;;9.20;99.90;;;;;;5051484;28;20633;-67
2022/11/06 08:37:41;;;;;;;0.00;0.00;;;9.30;99.90;;;;;;5051280;28;20601;-67
2022/11/06 08:40:07;;;;;;;0.28;0.28;;;9.50;99.90;;;;;;5051279;28;20170;-67
2022/11/06 08:42:33;;;;;;;0.00;0.00;;;9.60;99.90;;;;;;5051503;28;20181;-68
2022/11/06 08:44:58;;;;;;;0.00;0.00;;;9.70;99.90;;;;;;5051579;28;20648;-68
2022/11/06 08:47:24;;;;;;;0.00;0.00;;;9.80;99.90;;;;;;5050190;28;20181;-68
2022/11/06 08:49:49;;;;;;;0.00;0.00;;;9.90;99.90;;;;;;5052006;28;20173;-69
2022/11/06 08:52:15;;;;;;;0.00;0.00;;;10.00;99.90;;;;;;5056036;28;20238;-66
2022/11/06 08:54:40;;;;;;;0.00;0.00;;;10.10;99.90;;;;;;5055716;28;20173;-67
2022/11/06 08:57:06;;;;;;;0.10;0.10;;;10.20;99.90;;;;;;5055443;28;20636;-66
2022/11/06 08:59:32;;;;;;;0.00;0.00;;;10.20;99.90;;;;;;5055680;28;20185;-69
2022/11/06 09:01:57;;;;;;;0.00;0.00;;;10.10;99.90;;;;;;5054962;28;20177;-70
2022/11/06 09:04:23;;;;;;;0.10;0.10;;;10.10;99.90;;;;;;5055144;28;20216;-70
2022/11/06 09:06:48;;;;;;;0.47;0.17;;;10.20;99.90;;;;;;5054993;28;20185;-67
2022/11/06 09:09:14;;;;;;;0.10;0.10;;;10.30;99.90;;;;;;5054930;28;20193;-67
2022/11/06 09:11:39;;;;;;;0.00;0.00;;;10.40;99.90;;;;;;5055168;28;20304;-67
2022/11/06 09:14:05;;;;;;;0.00;0.00;;;10.40;99.90;;;;;;5054853;28;20269;-67
2022/11/06 09:16:30;;;;;;;0.00;0.00;;;10.40;99.90;;;;;;5055432;28;20188;-67
2022/11/06 09:18:56;;;;;;;0.00;0.00;;;10.40;99.90;;;;;;5055116;28;20204;-67
2022/11/06 09:21:23;;;;;;;0.00;0.00;;;10.50;99.90;;;;;;5053403;28;20194;-67
2022/11/06 09:23:49;;;;;;;0.00;0.00;;;10.50;99.90;;;;;;5054939;28;20173;-67
2022/11/06 09:26:14;;;;;;;0.00;0.00;;;10.50;99.90;;;;;;5055029;28;20215;-67
2022/11/06 09:28:40;;;;;;;0.00;0.00;;;10.50;99.90;;;;;;5055256;28;20553;-67
2022/11/06 09:31:06;;;;;;;0.10;0.10;;;10.50;99.90;;;;;;5054970;28;20224;-67
2022/11/06 09:33:32;;;;;;;0.05;0.05;;;10.50;99.90;;;;;;5055409;28;20192;-67
2022/11/06 09:35:58;;;;;;;0.00;0.00;;;10.60;99.90;;;;;;5054505;28;20260;-67
2022/11/06 09:38:23;;;;;;;0.00;0.00;;;10.70;99.90;;;;;;5054493;28;20174;-67
2022/11/06 09:40:53;;;;;;;0.00;0.00;;;10.80;99.90;;;;;;5054863;28;20189;-67
2022/11/06 09:43:53;;;;;;;0.00;0.00;;;10.90;99.90;;;;;;5054816;28;20308;-67
2022/11/06 09:46:23;;;;;;;0.00;0.00;;;10.90;99.90;;;;;;5054545;28;20213;-67
2022/11/06 09:48:54;;;;;;;0.00;0.00;;;10.90;99.90;;;;;;5042996;28;20192;-67
2022/11/06 09:51:25;;;;;;;0.00;0.00;;;11.10;99.90;;;;;;5054372;28;20236;-67
2022/11/06 09:53:57;;;;;;;0.00;0.00;;;11.10;99.90;;;;;;5054474;28;20307;-66
2022/11/06 09:56:27;;;;;;;0.05;0.05;;;11.10;99.90;;;;;;5054278;28;20169;-66
2022/11/06 09:58:54;;;;;;;0.00;0.00;;;11.10;99.90;;;;;;5054186;28;20177;-66
2022/11/06 10:01:22;;;;;;;0.00;0.00;;;11.10;99.90;;;;;;5054193;28;20188;-66
2022/11/06 10:04:02;;;;;;;0.10;0.10;;;11.20;99.90;;;;;;5054808;28;20169;-66
2022/11/06 10:06:28;;;;;;;0.00;0.00;;;11.30;99.90;;;;;;5054466;28;20511;-67
2022/11/06 10:09:01;;;;;;;0.00;0.00;;;11.50;99.90;;;;;;5054102;28;20266;-67
2022/11/06 10:11:53;;;;;;;0.10;0.10;;;11.70;99.90;;;;;;5054273;28;20216;-66
2022/11/06 10:15:00;;;;;;;0.00;0.00;;;11.90;99.90;;;;;;5054403;28;20838;-67
2022/11/06 10:17:39;;;;;;;0.00;0.00;;;12.00;99.90;;;;;;5043128;28;20181;-66
2022/11/06 10:20:05;;;;;;;0.08;0.08;;;12.10;99.90;;;;;;5054025;28;20246;-66
2022/11/06 10:22:38;;;;;;;0.00;0.00;;;12.20;99.90;;;;;;5053835;28;20174;-66
2022/11/06 10:25:21;;;;;;;0.00;0.00;;;12.20;99.90;;;;;;5053524;28;20177;-66
2022/11/06 10:27:57;;;;;;;0.00;0.00;;;12.30;99.90;;;;;;5051076;28;20185;-67
2022/11/06 10:30:22;;;;;;;0.00;0.00;;;12.40;99.90;;;;;;5053776;28;20227;-67
2022/11/06 10:33:08;;;;;;;0.00;0.00;;;12.50;99.90;;;;;;5053878;28;20169;-67
2022/11/06 10:35:39;;;;;;;0.00;0.00;;;12.60;99.90;;;;;;5054134;28;20185;-67
2022/11/06 10:38:16;;;;;;;0.03;0.03;;;12.60;99.90;;;;;;5053944;28;20181;-66
2022/11/06 10:40:44;;;;;;;0.00;0.00;;;12.70;99.90;;;;;;5053606;28;20193;-67
2022/11/06 10:43:39;;;;;;;0.00;0.00;;;12.80;99.90;;;;;;5053983;28;20173;-66
2022/11/06 10:46:15;;;;;;;0.00;0.00;;;12.70;99.90;;;;;;5053188;28;20185;-66
2022/11/06 10:48:47;;;;;;;0.00;0.00;;;12.60;99.90;;;;;;5052172;28;20185;-66
2022/11/06 10:51:44;;;;;;;0.00;0.00;;;12.60;99.90;;;;;;5053516;28;20265;-67
2022/11/06 10:54:29;;;;;;;0.00;0.00;;;12.50;99.90;;;;;;5037724;28;20256;-68
2022/11/06 10:56:58;;;;;;;0.00;0.00;;;12.50;99.90;;;;;;5039416;28;20653;-64
2022/11/06 10:59:24;;;;;;;0.00;0.00;;;12.40;99.90;;;;;;5053372;28;20184;-65
2022/11/06 11:01:49;;;;;;;0.00;0.00;;;12.30;99.90;;;;;;5053329;28;20579;-69
2022/11/06 11:04:15;;;;;;;0.00;0.00;;;12.40;99.90;;;;;;5052704;28;20563;-71
2022/11/06 11:06:40;;;;;;;0.15;0.10;;;12.50;99.90;;;;;;5051624;28;20181;-66
2022/11/06 11:09:27;;;;;;;0.00;0.00;;;12.60;99.90;;;;;;5053121;28;20185;-68
2022/11/06 11:11:52;;;;;;;0.00;0.00;;;12.60;99.90;;;;;;5043669;28;20220;-66
2022/11/06 11:14:24;;;;;;;0.00;0.00;;;12.60;99.90;;;;;;5052406;28;20181;-70
2022/11/06 11:16:50;;;;;;;0.32;0.32;;;12.70;99.90;;;;;;5051274;28;20183;-65
2022/11/06 11:19:40;;;;;;;0.00;0.00;;;12.80;99.90;;;;;;5052302;28;20181;-66
2022/11/06 11:22:15;;;;;;;0.00;0.00;;;13.00;99.90;;;;;;5052734;28;20242;-66
2022/11/06 11:25:05;;;;;;;0.08;0.08;;;13.20;99.90;;;;;;5053158;28;20179;-66
2022/11/06 11:27:44;;;;;;;0.30;0.30;;;13.40;99.70;;;;;;5053139;28;20177;-66
2022/11/06 11:30:20;;;;;;;0.00;0.00;;;13.60;99.70;;;;;;5052616;28;20170;-66
2022/11/06 11:32:45;;;;;;;0.05;0.00;;;13.60;98.70;;;;;;5052852;28;20185;-65
2022/11/06 11:35:17;;;;;;;0.00;0.00;;;13.50;98.20;;;;;;5053024;28;20176;-66
2022/11/06 11:37:44;;;;;;;0.10;0.10;;;13.40;98.40;;;;;;5052901;28;20177;-66
2022/11/06 11:40:34;;;;;;;0.00;0.00;;;13.30;98.60;;;;;;5051594;28;20227;-66
2022/11/06 11:43:40;;;;;;;0.00;0.00;;;13.30;98.70;;;;;;5051731;28;20169;-66
2022/11/06 11:46:09;;;;;;;0.00;0.00;;;13.20;99.20;;;;;;5051421;28;20221;-67
2022/11/06 11:48:50;;;;;;;0.00;0.00;;;13.20;99.30;;;;;;5052551;28;20165;-66
2022/11/06 11:51:30;;;;;;;0.00;0.00;;;13.10;99.10;;;;;;5052669;28;20676;-66
2022/11/06 11:54:06;;;;;;;0.00;0.00;;;13.10;99.50;;;;;;5052670;28;20173;-66
2022/11/06 11:56:33;;;;;;;0.20;0.20;;;13.00;99.70;;;;;;5052670;28;20182;-66
2022/11/06 11:59:01;;;;;;;0.00;0.00;;;13.00;99.70;;;;;;5052545;28;20644;-66
2022/11/06 12:01:37;;;;;;;0.00;0.00;;;13.00;99.80;;;;;;5052493;28;20311;-66
2022/11/06 12:04:12;;;;;;;0.00;0.00;;;13.10;99.80;;;;;;5052409;28;20655;-66
2022/11/06 12:06:52;;;;;;;0.00;0.00;;;13.10;99.30;;;;;;5052308;28;20289;-68
2022/11/06 12:09:19;;;;;;;0.00;0.00;;;13.10;99.40;;;;;;5052318;28;20458;-66
2022/11/06 12:11:45;;;;;;;0.00;0.00;;;13.00;99.20;;;;;;5052150;28;20213;-65
2022/11/06 12:14:21;;;;;;;0.00;0.00;;;13.00;99.30;;;;;;5052306;28;20223;-66
2022/11/06 12:17:00;;;;;;;0.20;0.20;;;12.90;99.70;;;;;;5052223;28;20195;-65
2022/11/06 12:19:30;;;;;;;0.00;0.00;;;13.00;99.90;;;;;;5052344;28;20173;-66
2022/11/06 12:22:02;;;;;;;0.00;0.00;;;13.00;99.30;;;;;;5053655;28;20534;-66
2022/11/06 12:24:40;;;;;;;0.03;0.03;;;12.90;99.50;;;;;;5060953;28;20536;-66
2022/11/06 12:27:12;;;;;;;0.00;0.00;;;12.80;99.80;;;;;;5052031;28;20196;-66
2022/11/06 12:29:41;;;;;;;0.30;0.10;;;12.70;99.80;;;;;;5071567;28;20169;-66
2022/11/06 12:32:17;;;;;;;0.20;0.13;;;12.70;99.90;;;;;;5071849;28;20212;-66
2022/11/06 12:35:20;;;;;;;0.00;0.00;;;12.60;99.90;;;;;;5070915;28;20168;-66
2022/11/06 12:37:52;;;;;;;0.10;0.10;;;12.60;99.50;;;;;;5067747;28;20189;-66
2022/11/06 12:40:20;;;;;;;0.38;0.10;;;12.50;99.70;;;;;;5064987;28;20275;-65
2022/11/06 12:42:54;;;;;;;0.00;0.00;;;12.40;99.50;;;;;;5051889;28;20256;-66
2022/11/06 12:45:32;;;;;;;0.00;0.00;;;12.40;99.60;;;;;;5051879;28;20256;-66
2022/11/06 12:48:18;;;;;;;0.10;0.10;;;12.30;99.40;;;;;;5051857;28;20272;-66
2022/11/06 12:51:00;;;;;;;0.00;0.00;;;12.30;99.70;;;;;;5051989;28;20213;-65
2022/11/06 12:53:56;;;;;;;0.00;0.00;;;12.30;99.90;;;;;;5051744;28;20177;-66
2022/11/06 12:56:28;;;;;;;0.00;0.00;;;12.30;99.80;;;;;;5051742;28;20638;-66
2022/11/06 12:59:00;;;;;;;0.00;0.00;;;12.30;99.90;;;;;;5050368;28;20188;-66
2022/11/06 13:01:51;;;;;;;0.00;0.00;;;12.30;99.90;;;;;;5055065;28;20510;-66
2022/11/06 13:04:22;;;;;;;0.00;0.00;;;12.20;99.90;;;;;;5051544;28;20644;-66
2022/11/06 13:07:16;;;;;;;0.00;0.00;;;12.20;99.90;;;;;;5051323;28;20185;-67
2022/11/06 13:10:20;;;;;;;0.00;0.00;;;12.30;99.90;;;;;;5051355;28;20283;-67
2022/11/06 13:13:15;;;;;;;0.00;0.00;;;12.20;99.90;;;;;;5051071;28;20251;-66
2022/11/06 13:15:54;;;;;;;0.00;0.00;;;12.20;99.90;;;;;;5044581;28;20189;-67
2022/11/06 13:18:31;;;;;;;0.00;0.00;;;12.20;99.90;;;;;;5048607;28;20299;-66
2022/11/06 13:21:23;;;;;;;0.00;0.00;;;12.20;99.90;;;;;;5051381;28;20212;-66
2022/11/06 13:23:54;;;;;;;0.00;0.00;;;12.20;99.90;;;;;;5038412;28;20431;-67
2022/11/06 13:26:38;;;;;;;0.00;0.00;;;12.20;99.90;;;;;;5051383;28;20204;-66
2022/11/06 13:29:12;;;;;;;0.08;0.08;;;12.10;99.90;;;;;;5051535;28;20282;-70